TNCE/EUX METAR and TAF weather

Enter ICAO airport designator
Station Type Date Time Source
TNCE METAR 2019/10/23 07:55 UTC NOAA

TNCE 230755Z AUTO 07010KT //// // ///////// 27/23 Q1011 RE//


Station Type Date Time Source
TNCE Decoded METAR 2019/10/23 07:55 UTC NOAA

Roosevelt Airport Saint Eustatius, Netherlands Antilles (TNCE) 17-29N 062-59W 39M
Oct 23, 2019 - 03:55 AM EDT / 2019.10.23 0755 UTC
Wind: from the ENE (070 degrees) at 12 MPH (10 KT):0
Temperature: 80 F (27 C)
Dew Point: 73 F (23 C)
Relative Humidity: 78%
Pressure (altimeter): 29.85 in. Hg (1011 hPa)
ob: TNCE 230755Z AUTO 07010KT //// // ///////// 27/23 Q1011 RE//
cycle: 8

Station Type Date Time Source
TNCE TAF UTC NOAA

Error!

Example: see airport list